createdAt,value
2023-05-19T00:00:39.774Z,62.73
2023-05-19T00:02:05.989Z,62.65
2023-05-19T00:03:29.239Z,62.54
2023-05-19T00:04:52.008Z,62.61
2023-05-19T00:06:13.898Z,62.59
2023-05-19T00:07:39.440Z,62.72
2023-05-19T00:09:04.174Z,63.03
2023-05-19T00:10:30.584Z,63.01
2023-05-19T00:11:59.676Z,63.01
2023-05-19T00:13:23.304Z,63.09
2023-05-19T00:14:45.006Z,63.00
2023-05-19T00:16:08.139Z,63.22
2023-05-19T00:17:34.525Z,63.14
2023-05-19T00:18:59.746Z,63.50
2023-05-19T00:20:25.848Z,63.33
2023-05-19T00:21:47.185Z,63.64
2023-05-19T00:23:09.731Z,63.72
2023-05-19T00:24:31.929Z,63.67
2023-05-19T00:25:54.186Z,63.51
2023-05-19T00:27:16.623Z,63.74
2023-05-19T00:28:38.067Z,63.81
2023-05-19T00:30:00.618Z,64.07
2023-05-19T00:31:24.491Z,64.25
2023-05-19T00:32:48.001Z,64.19
2023-05-19T00:34:10.466Z,64.04
2023-05-19T00:35:31.630Z,64.27
2023-05-19T00:36:53.902Z,64.22
2023-05-19T00:38:16.917Z,64.51
2023-05-19T00:39:39.006Z,64.72
2023-05-19T00:41:00.495Z,64.75
2023-05-19T00:42:22.983Z,64.85
2023-05-19T00:43:44.384Z,65.14
2023-05-19T00:45:08.097Z,64.98
2023-05-19T00:46:31.085Z,65.18
2023-05-19T00:47:53.963Z,65.37
2023-05-19T00:49:16.089Z,65.41
2023-05-19T00:50:37.332Z,65.37
2023-05-19T00:52:00.990Z,65.73
2023-05-19T00:53:24.848Z,65.26
2023-05-19T00:54:47.744Z,65.19
2023-05-19T00:56:09.031Z,65.21
2023-05-19T00:57:31.359Z,65.29
2023-05-19T00:58:52.444Z,65.41
2023-05-19T01:00:16.426Z,65.48
2023-05-19T01:01:38.803Z,65.41
2023-05-19T01:03:01.933Z,65.43
2023-05-19T01:04:25.732Z,65.49
2023-05-19T01:05:47.722Z,65.39
2023-05-19T01:07:10.598Z,65.67
2023-05-19T01:08:32.833Z,65.54
2023-05-19T01:09:55.073Z,65.71
2023-05-19T01:11:17.298Z,65.78
2023-05-19T01:12:38.712Z,65.62
2023-05-19T01:14:01.013Z,65.90
2023-05-19T01:15:23.073Z,65.88
2023-05-19T01:16:50.044Z,65.96
2023-05-19T01:18:16.842Z,65.76
2023-05-19T01:19:56.445Z,65.84
2023-05-19T01:21:36.615Z,66.03
2023-05-19T01:23:27.752Z,66.00
2023-05-19T01:25:31.831Z,66.24
2023-05-19T01:27:14.776Z,66.24
2023-05-19T01:29:04.431Z,66.09
2023-05-19T01:30:32.420Z,66.33
2023-05-19T01:31:57.004Z,66.46
2023-05-19T01:33:19.389Z,66.29
2023-05-19T01:34:45.588Z,66.20
2023-05-19T01:36:10.353Z,66.25
2023-05-19T01:37:32.310Z,66.39
2023-05-19T01:38:57.714Z,66.18
2023-05-19T01:40:20.134Z,66.38
2023-05-19T01:41:43.645Z,66.18
2023-05-19T01:43:04.988Z,66.20
2023-05-19T01:44:27.365Z,66.14
2023-05-19T01:45:52.810Z,66.05
2023-05-19T01:47:16.426Z,66.05
2023-05-19T01:48:38.620Z,66.04
2023-05-19T01:50:00.853Z,66.25
2023-05-19T01:51:23.127Z,66.15
2023-05-19T01:52:44.146Z,66.21
2023-05-19T01:54:06.083Z,66.38
2023-05-19T01:55:27.378Z,66.02
2023-05-19T01:56:57.344Z,66.15
2023-05-19T01:58:25.162Z,65.90
2023-05-19T01:59:53.637Z,65.98
2023-05-19T02:01:30.400Z,65.85
2023-05-19T02:02:59.821Z,65.94
2023-05-19T02:04:31.573Z,65.89
2023-05-19T02:05:59.591Z,66.13
2023-05-19T02:07:32.785Z,66.25
2023-05-19T02:09:02.255Z,66.09
2023-05-19T02:10:32.014Z,66.29
2023-05-19T02:11:56.380Z,66.15
2023-05-19T02:13:25.879Z,66.25
2023-05-19T02:14:52.296Z,66.63
2023-05-19T02:16:19.028Z,66.33
2023-05-19T02:17:47.991Z,66.34
2023-05-19T02:19:22.275Z,66.39
2023-05-19T02:20:45.233Z,66.56
2023-05-19T02:22:08.582Z,66.51
2023-05-19T02:23:30.561Z,66.69
2023-05-19T02:24:52.148Z,66.49
2023-05-19T02:26:14.475Z,66.58
2023-05-19T02:27:40.257Z,66.79
2023-05-19T02:29:01.719Z,66.45
2023-05-19T02:30:24.384Z,66.45
2023-05-19T02:31:46.632Z,66.81
2023-05-19T02:33:11.539Z,66.72
2023-05-19T02:34:34.111Z,66.53
2023-05-19T02:35:55.293Z,66.56
2023-05-19T02:37:18.884Z,66.36
2023-05-19T02:38:41.488Z,66.08
2023-05-19T02:40:02.664Z,66.22
2023-05-19T02:41:25.077Z,66.30
2023-05-19T02:42:47.336Z,66.46
2023-05-19T02:44:09.007Z,66.32
2023-05-19T02:45:32.172Z,66.30
2023-05-19T02:46:53.400Z,66.43
2023-05-19T02:48:17.910Z,66.29
2023-05-19T02:49:38.952Z,66.38
2023-05-19T02:51:00.855Z,66.12
2023-05-19T02:52:21.397Z,66.49
2023-05-19T02:53:44.172Z,66.34
2023-05-19T02:55:06.153Z,66.69
2023-05-19T02:56:28.315Z,66.49
2023-05-19T02:57:52.633Z,66.45
2023-05-19T02:59:14.026Z,66.33
2023-05-19T03:00:36.085Z,66.21
2023-05-19T03:02:02.132Z,66.31
2023-05-19T03:03:26.233Z,66.33
2023-05-19T03:04:47.471Z,66.20
2023-05-19T03:06:10.004Z,66.11
2023-05-19T03:07:31.335Z,66.17
2023-05-19T03:08:56.114Z,66.20
2023-05-19T03:10:18.623Z,66.20
2023-05-19T03:12:06.733Z,66.18
2023-05-19T03:13:28.883Z,66.18
2023-05-19T03:14:51.479Z,66.11
2023-05-19T03:16:15.577Z,66.23
2023-05-19T03:17:36.744Z,66.16
2023-05-19T03:19:00.841Z,65.79
2023-05-19T03:20:23.419Z,65.94
2023-05-19T03:21:51.451Z,65.66
2023-05-19T03:23:13.617Z,66.00
2023-05-19T03:24:35.286Z,65.62
2023-05-19T03:25:57.965Z,65.70
2023-05-19T03:27:19.360Z,65.51
2023-05-19T03:28:50.928Z,65.74
2023-05-19T03:30:13.547Z,65.58
2023-05-19T03:31:52.221Z,65.75
2023-05-19T03:33:20.412Z,65.67
2023-05-19T03:34:42.960Z,65.76
2023-05-19T03:36:08.148Z,65.60
2023-05-19T03:37:33.794Z,65.60
2023-05-19T03:39:01.289Z,65.75
2023-05-19T03:40:27.377Z,65.62
2023-05-19T03:41:59.301Z,65.85
2023-05-19T03:43:20.642Z,66.01
2023-05-19T03:44:48.835Z,65.88
2023-05-19T03:46:11.405Z,66.10
2023-05-19T03:47:50.650Z,65.76
2023-05-19T03:49:31.896Z,65.94
2023-05-19T03:51:35.010Z,66.04
2023-05-19T03:53:17.693Z,66.12
2023-05-19T03:54:39.854Z,65.83
2023-05-19T03:56:01.954Z,66.17
2023-05-19T03:57:24.161Z,66.29
2023-05-19T03:58:47.137Z,66.13
2023-05-19T04:00:12.424Z,66.05
2023-05-19T04:01:33.586Z,65.89
2023-05-19T04:02:55.898Z,66.05
2023-05-19T04:04:18.397Z,65.92
2023-05-19T04:05:40.301Z,65.93
2023-05-19T04:07:03.663Z,65.65
2023-05-19T04:08:26.238Z,65.85
2023-05-19T04:09:59.518Z,65.69
2023-05-19T04:11:26.961Z,65.70
2023-05-19T04:12:48.521Z,65.44
2023-05-19T04:14:11.708Z,65.12
2023-05-19T04:15:34.257Z,64.98
2023-05-19T04:16:56.572Z,64.95
2023-05-19T04:18:17.777Z,64.68
2023-05-19T04:19:40.390Z,64.85
2023-05-19T04:21:01.913Z,64.62
2023-05-19T04:22:25.375Z,64.53
2023-05-19T04:23:47.467Z,64.00
2023-05-19T04:25:10.332Z,63.95
2023-05-19T04:26:34.652Z,63.55
2023-05-19T04:27:58.029Z,63.50
2023-05-19T04:29:20.707Z,63.30
2023-05-19T04:30:42.659Z,62.76
2023-05-19T04:32:06.914Z,62.97
2023-05-19T04:33:29.978Z,62.87
2023-05-19T04:34:51.906Z,62.64
2023-05-19T04:36:21.564Z,62.38
2023-05-19T04:37:46.692Z,62.33
2023-05-19T04:39:12.287Z,61.88
2023-05-19T04:40:37.287Z,61.69
2023-05-19T04:41:58.604Z,61.10
2023-05-19T04:43:22.407Z,61.28
2023-05-19T04:44:50.128Z,60.93
2023-05-19T04:46:13.912Z,60.83
2023-05-19T04:47:38.420Z,60.66
2023-05-19T04:49:06.969Z,60.76
2023-05-19T04:50:31.318Z,60.72
2023-05-19T04:51:55.501Z,60.71
2023-05-19T04:53:23.097Z,60.72
2023-05-19T04:54:44.428Z,60.30
2023-05-19T04:56:10.054Z,60.25
2023-05-19T04:57:31.963Z,60.19
2023-05-19T04:58:54.166Z,60.13
2023-05-19T05:00:17.823Z,60.14
2023-05-19T05:02:00.314Z,59.91
2023-05-19T05:03:25.385Z,59.81
2023-05-19T05:04:49.388Z,59.48
2023-05-19T05:06:10.639Z,59.48
2023-05-19T05:07:33.669Z,59.10
2023-05-19T05:08:58.192Z,58.95
2023-05-19T05:10:20.888Z,59.29
2023-05-19T05:11:44.461Z,59.08
2023-05-19T05:13:07.025Z,59.15
2023-05-19T05:14:29.719Z,59.01
2023-05-19T05:15:52.459Z,58.98
2023-05-19T05:17:16.253Z,58.84
2023-05-19T05:18:38.806Z,58.96
2023-05-19T05:20:01.844Z,58.83
2023-05-19T05:21:25.006Z,59.17
2023-05-19T05:22:46.599Z,58.93
2023-05-19T05:24:12.560Z,58.93
2023-05-19T05:25:37.672Z,59.00
2023-05-19T05:27:00.283Z,58.88
2023-05-19T05:28:25.025Z,58.81
2023-05-19T05:29:48.525Z,58.66
2023-05-19T05:31:12.450Z,58.73
2023-05-19T05:32:36.273Z,58.73
2023-05-19T05:34:08.172Z,58.92
2023-05-19T05:35:31.037Z,58.83
2023-05-19T05:36:53.832Z,58.82
2023-05-19T05:38:16.605Z,58.95
2023-05-19T05:39:40.527Z,58.71
2023-05-19T05:41:03.381Z,58.97
2023-05-19T05:42:29.744Z,58.68
2023-05-19T05:43:51.401Z,58.69
2023-05-19T05:45:14.100Z,58.83
2023-05-19T05:46:39.156Z,58.98
2023-05-19T05:48:02.188Z,58.92
2023-05-19T05:49:26.687Z,59.10
2023-05-19T05:50:51.260Z,58.77
2023-05-19T05:52:21.924Z,58.70
2023-05-19T05:53:52.869Z,58.42
2023-05-19T05:55:19.088Z,58.30
2023-05-19T05:56:43.273Z,58.33
2023-05-19T05:58:06.487Z,58.16
2023-05-19T05:59:29.799Z,57.81
2023-05-19T06:00:51.987Z,57.41
2023-05-19T06:02:13.661Z,57.58
2023-05-19T06:03:38.203Z,57.60
2023-05-19T06:05:02.739Z,57.35
2023-05-19T06:06:23.938Z,57.00
2023-05-19T06:07:47.667Z,56.70
2023-05-19T06:09:22.110Z,56.48
2023-05-19T06:10:48.717Z,56.50
2023-05-19T06:12:12.408Z,56.53
2023-05-19T06:13:44.340Z,56.77
2023-05-19T06:15:17.330Z,56.63
2023-05-19T06:16:51.504Z,56.82
2023-05-19T06:18:13.973Z,56.70
2023-05-19T06:19:36.156Z,56.62
2023-05-19T06:20:58.302Z,56.75
2023-05-19T06:22:19.427Z,56.61
2023-05-19T06:23:41.967Z,56.65
2023-05-19T06:25:05.873Z,56.74
2023-05-19T06:26:30.978Z,56.57
2023-05-19T06:27:54.800Z,56.38
2023-05-19T06:29:20.551Z,56.43
2023-05-19T06:30:44.365Z,56.42
2023-05-19T06:32:16.888Z,56.63
2023-05-19T06:33:39.149Z,56.57
2023-05-19T06:35:01.633Z,56.67
2023-05-19T06:36:23.884Z,56.72
2023-05-19T06:37:48.414Z,56.68
2023-05-19T06:39:11.053Z,56.78
2023-05-19T06:40:37.129Z,56.85
2023-05-19T06:42:00.878Z,56.89
2023-05-19T06:43:44.165Z,57.30
2023-05-19T06:45:21.938Z,57.52
2023-05-19T06:46:48.101Z,57.63
2023-05-19T06:48:10.836Z,57.71
2023-05-19T06:49:33.600Z,57.57
2023-05-19T06:50:57.467Z,57.44
2023-05-19T06:52:20.202Z,57.47
2023-05-19T06:53:42.618Z,57.60
2023-05-19T06:55:04.632Z,57.58
2023-05-19T06:56:28.010Z,57.67
2023-05-19T06:57:53.046Z,57.73
2023-05-19T06:59:16.375Z,57.96
2023-05-19T07:00:39.897Z,57.75
2023-05-19T07:02:04.923Z,57.68
2023-05-19T07:03:28.571Z,57.67
2023-05-19T07:04:52.840Z,57.47
2023-05-19T07:06:17.760Z,57.50
2023-05-19T07:07:40.057Z,57.30
2023-05-19T07:09:09.836Z,57.58
2023-05-19T07:10:33.865Z,57.40
2023-05-19T07:11:56.766Z,57.44
2023-05-19T07:13:20.695Z,57.40
2023-05-19T07:14:43.523Z,57.24
2023-05-19T07:16:07.150Z,57.08
2023-05-19T07:17:32.256Z,57.14
2023-05-19T07:18:54.533Z,57.14
2023-05-19T07:20:16.816Z,57.36
2023-05-19T07:21:39.184Z,57.30
2023-05-19T07:23:02.822Z,57.33
2023-05-19T07:24:26.173Z,57.30
2023-05-19T07:25:48.631Z,57.14
2023-05-19T07:27:11.333Z,57.19
2023-05-19T07:28:35.822Z,57.07
2023-05-19T07:29:57.723Z,57.00
2023-05-19T07:31:22.778Z,56.83
2023-05-19T07:32:44.942Z,56.97
2023-05-19T07:34:06.985Z,56.93
2023-05-19T07:35:28.687Z,57.18
2023-05-19T07:36:51.640Z,57.66
2023-05-19T07:38:15.514Z,57.63
2023-05-19T07:39:37.862Z,57.54
2023-05-19T07:41:00.513Z,57.25
2023-05-19T07:42:25.712Z,57.24
2023-05-19T07:44:13.502Z,57.48
2023-05-19T07:45:36.013Z,57.87
2023-05-19T07:46:58.220Z,58.00
2023-05-19T07:48:24.792Z,58.19
2023-05-19T07:49:49.075Z,58.34
2023-05-19T07:51:14.719Z,58.22
2023-05-19T07:52:37.316Z,58.29
2023-05-19T07:54:08.521Z,58.38
2023-05-19T07:55:30.539Z,58.12
2023-05-19T07:56:55.672Z,58.08
2023-05-19T07:58:18.063Z,58.30
2023-05-19T07:59:50.787Z,58.61
2023-05-19T08:01:13.023Z,59.21
2023-05-19T08:02:39.764Z,59.34
2023-05-19T08:04:01.823Z,59.35
2023-05-19T08:05:30.677Z,59.66
2023-05-19T08:06:53.292Z,59.64
2023-05-19T08:08:16.997Z,59.43
2023-05-19T08:09:43.420Z,59.61
2023-05-19T08:11:06.807Z,59.50
2023-05-19T08:12:34.312Z,59.57
2023-05-19T08:13:59.151Z,59.44
2023-05-19T08:15:28.581Z,59.29
2023-05-19T08:16:51.921Z,58.84
2023-05-19T08:18:24.832Z,58.66
2023-05-19T08:19:47.147Z,58.55
2023-05-19T08:21:32.036Z,58.39
2023-05-19T08:22:54.954Z,57.93
2023-05-19T08:24:17.338Z,57.56
2023-05-19T08:25:39.570Z,57.18
2023-05-19T08:27:01.988Z,57.01
2023-05-19T08:28:23.929Z,56.46
2023-05-19T08:29:46.137Z,55.73
2023-05-19T08:31:28.519Z,55.38
2023-05-19T08:32:51.510Z,55.09
2023-05-19T08:34:13.752Z,55.11
2023-05-19T08:35:35.916Z,54.73
2023-05-19T08:36:59.969Z,54.21
2023-05-19T08:38:22.404Z,54.03
2023-05-19T08:39:46.075Z,53.69
2023-05-19T08:41:32.484Z,52.64
2023-05-19T08:42:58.615Z,53.00
2023-05-19T08:44:20.910Z,52.67
2023-05-19T08:45:46.647Z,52.64
2023-05-19T08:47:14.120Z,52.29
2023-05-19T08:48:43.552Z,51.75
2023-05-19T08:50:13.232Z,51.52
2023-05-19T08:52:03.417Z,51.18
2023-05-19T08:53:33.198Z,51.07
2023-05-19T08:55:10.023Z,50.42
2023-05-19T08:56:36.472Z,50.30
2023-05-19T08:58:13.244Z,50.49
2023-05-19T09:01:41.941Z,50.79
2023-05-19T09:03:18.269Z,50.30
2023-05-19T09:04:48.153Z,50.29
2023-05-19T09:06:12.726Z,49.80
2023-05-19T09:07:37.978Z,49.14
2023-05-19T09:09:04.204Z,48.76
2023-05-19T09:10:29.335Z,48.13
2023-05-19T09:11:51.463Z,47.28
2023-05-19T09:13:13.875Z,47.10
2023-05-19T09:14:41.691Z,46.72
2023-05-19T09:16:05.544Z,46.45
2023-05-19T09:17:27.882Z,46.24
2023-05-19T09:19:13.269Z,45.69
2023-05-19T09:20:40.464Z,45.48
2023-05-19T09:22:04.904Z,45.11
2023-05-19T09:23:37.498Z,44.36
2023-05-19T09:25:01.903Z,43.63
2023-05-19T09:26:27.789Z,43.08
2023-05-19T09:28:06.066Z,42.67
2023-05-19T09:29:28.792Z,42.52
2023-05-19T09:31:10.061Z,41.99
2023-05-19T09:32:32.405Z,42.42
2023-05-19T09:34:00.619Z,42.12
2023-05-19T09:35:25.302Z,41.92
2023-05-19T09:37:00.618Z,41.91
2023-05-19T09:38:27.078Z,41.62
2023-05-19T09:39:52.313Z,41.37
2023-05-19T09:41:18.949Z,40.75
2023-05-19T09:42:49.809Z,40.99
2023-05-19T09:44:23.416Z,41.10
2023-05-19T09:45:47.479Z,41.28
2023-05-19T09:47:11.427Z,41.26
2023-05-19T09:48:34.733Z,40.97
2023-05-19T09:50:01.800Z,41.09
2023-05-19T09:51:23.959Z,41.37
2023-05-19T09:52:50.480Z,41.31
2023-05-19T09:54:47.048Z,40.87
2023-05-19T09:56:10.434Z,41.34
2023-05-19T09:57:39.538Z,41.32
2023-05-19T09:59:02.929Z,40.46
2023-05-19T10:03:29.404Z,40.22
2023-05-19T10:04:53.547Z,39.38
2023-05-19T10:06:17.828Z,39.43
2023-05-19T10:07:44.740Z,38.62
2023-05-19T10:09:07.879Z,38.53
2023-05-19T10:10:49.937Z,38.56
2023-05-19T10:12:16.222Z,38.96
2023-05-19T10:13:40.066Z,38.47
2023-05-19T10:15:02.904Z,38.87
2023-05-19T10:16:29.591Z,38.38
2023-05-19T10:17:52.831Z,38.49
2023-05-19T10:19:19.386Z,38.31
2023-05-19T10:21:35.232Z,38.98
2023-05-19T10:22:59.346Z,40.08
2023-05-19T10:24:22.162Z,40.16
2023-05-19T10:26:05.267Z,40.09
2023-05-19T10:27:29.700Z,40.61
2023-05-19T10:29:28.832Z,41.07
2023-05-19T10:31:12.177Z,41.45
2023-05-19T10:32:35.849Z,41.91
2023-05-19T10:40:22.670Z,43.95
2023-05-19T10:42:19.229Z,44.26
2023-05-19T10:44:29.238Z,44.41
2023-05-19T10:46:20.373Z,44.70
2023-05-19T10:48:32.442Z,44.80
2023-05-19T10:50:19.515Z,45.04
2023-05-19T10:51:46.871Z,45.21
2023-05-19T10:53:19.474Z,45.08
2023-05-19T10:54:44.030Z,45.55
2023-05-19T10:56:53.689Z,45.30
2023-05-19T10:58:17.605Z,45.81
2023-05-19T10:59:40.162Z,46.01
2023-05-19T11:01:02.987Z,46.39
2023-05-19T11:03:36.676Z,46.42
2023-05-19T11:05:30.313Z,47.61
2023-05-19T11:07:06.349Z,48.35
2023-05-19T11:08:34.656Z,48.84
2023-05-19T11:10:08.357Z,49.82
2023-05-19T11:11:51.301Z,50.10
2023-05-19T11:13:42.499Z,50.24
2023-05-19T11:15:05.631Z,50.95
2023-05-19T11:16:53.901Z,51.67
2023-05-19T11:23:49.886Z,53.06
2023-05-19T11:31:58.739Z,54.46
2023-05-19T11:39:56.160Z,55.76
2023-05-19T11:44:15.248Z,55.67
2023-05-19T11:45:40.998Z,55.62
2023-05-19T11:48:07.852Z,55.30
2023-05-19T11:56:42.039Z,56.03
2023-05-19T11:58:06.213Z,55.78
2023-05-19T12:00:40.230Z,55.35
2023-05-19T12:02:15.918Z,55.67
2023-05-19T12:03:38.514Z,55.49
2023-05-19T12:05:09.748Z,55.17
2023-05-19T12:06:39.704Z,55.04
2023-05-19T12:08:13.687Z,54.99
2023-05-19T12:09:38.859Z,54.88
2023-05-19T12:11:04.999Z,54.67
2023-05-19T12:12:35.589Z,54.46
2023-05-19T12:14:00.376Z,54.32
2023-05-19T12:15:23.280Z,54.05
2023-05-19T12:16:45.895Z,54.04
2023-05-19T12:34:03.558Z,53.36
2023-05-19T12:35:44.936Z,53.17
2023-05-19T12:39:52.029Z,53.91
2023-05-19T12:41:16.937Z,53.86
2023-05-19T12:43:29.019Z,53.72
2023-05-19T12:48:40.739Z,54.42
2023-05-19T13:06:50.898Z,55.56
2023-05-19T13:08:14.924Z,55.21
2023-05-19T13:10:15.822Z,55.14
2023-05-19T13:11:38.892Z,55.38
2023-05-19T13:13:03.308Z,55.41
2023-05-19T13:15:15.398Z,55.08
2023-05-19T13:17:39.132Z,55.29
2023-05-19T13:19:01.746Z,55.36
2023-05-19T13:20:25.578Z,55.37
2023-05-19T13:21:52.246Z,55.35
2023-05-19T13:23:15.889Z,55.13
2023-05-19T13:24:44.061Z,54.91
2023-05-19T13:26:09.467Z,54.85
2023-05-19T13:27:31.145Z,54.68
2023-05-19T13:28:53.809Z,54.43
2023-05-19T13:30:52.920Z,54.18
2023-05-19T13:32:19.160Z,54.22
2023-05-19T13:33:56.753Z,54.43
2023-05-19T13:38:02.122Z,54.27
2023-05-19T13:39:47.204Z,54.50
2023-05-19T13:42:45.726Z,54.34
2023-05-19T13:44:50.495Z,55.09
2023-05-19T13:48:46.574Z,55.07
2023-05-19T13:55:33.781Z,55.50
2023-05-19T14:00:44.549Z,55.36
2023-05-19T14:02:40.176Z,55.49
2023-05-19T14:07:49.806Z,54.79
2023-05-19T14:10:25.281Z,54.22
2023-05-19T14:13:42.730Z,53.17
2023-05-19T14:15:09.845Z,52.38
2023-05-19T14:16:35.482Z,52.00
2023-05-19T14:18:21.753Z,51.24
2023-05-19T14:19:44.085Z,50.86
2023-05-19T14:21:42.380Z,50.23
2023-05-19T14:23:04.522Z,50.17
2023-05-19T14:24:26.818Z,49.71
2023-05-19T14:25:49.025Z,49.19
2023-05-19T14:27:11.185Z,49.18
2023-05-19T14:28:32.387Z,49.28
2023-05-19T14:29:58.268Z,49.37
2023-05-19T14:31:29.316Z,49.34
2023-05-19T14:32:58.120Z,49.53
2023-05-19T14:34:21.237Z,49.25
2023-05-19T14:35:43.651Z,49.07
2023-05-19T14:37:06.252Z,49.19
2023-05-19T14:38:29.413Z,49.31
2023-05-19T14:39:52.109Z,49.24
2023-05-19T14:41:13.801Z,49.56
2023-05-19T14:42:35.860Z,49.99
2023-05-19T14:43:59.260Z,49.71
2023-05-19T14:45:25.815Z,49.34
2023-05-19T14:46:47.154Z,49.53
2023-05-19T14:48:10.953Z,49.07
2023-05-19T14:49:33.288Z,49.03
2023-05-19T14:50:55.929Z,48.85
2023-05-19T14:52:18.060Z,48.70
2023-05-19T14:53:40.387Z,48.49
2023-05-19T14:55:02.951Z,48.51
2023-05-19T14:56:34.048Z,48.09
2023-05-19T14:58:28.478Z,48.18
2023-05-19T14:59:51.922Z,48.22
2023-05-19T15:01:15.441Z,48.13
2023-05-19T15:02:37.429Z,47.77
2023-05-19T15:04:06.058Z,47.63
2023-05-19T15:05:35.830Z,47.41
2023-05-19T15:07:10.629Z,47.59
2023-05-19T15:08:33.405Z,47.32
2023-05-19T15:09:55.651Z,47.45
2023-05-19T15:11:17.822Z,47.27
2023-05-19T15:12:40.172Z,47.50
2023-05-19T15:14:01.251Z,47.24
2023-05-19T15:15:23.548Z,47.18
2023-05-19T15:16:47.395Z,47.48
2023-05-19T15:18:09.685Z,47.73
2023-05-19T15:19:31.826Z,47.94
2023-05-19T15:20:53.890Z,47.77
2023-05-19T15:22:25.650Z,47.52
2023-05-19T15:23:50.348Z,47.66
2023-05-19T15:25:15.380Z,47.67
2023-05-19T15:26:41.017Z,47.83
2023-05-19T15:28:04.023Z,47.94
2023-05-19T15:29:26.028Z,48.00
2023-05-19T15:30:48.424Z,48.10
2023-05-19T15:32:14.679Z,48.29
2023-05-19T15:33:37.509Z,48.85
2023-05-19T15:34:59.621Z,48.70
2023-05-19T15:36:27.539Z,48.61
2023-05-19T15:37:51.815Z,48.51
2023-05-19T15:39:37.550Z,48.54
2023-05-19T15:41:00.072Z,48.85
2023-05-19T15:42:22.286Z,49.04
2023-05-19T15:43:46.532Z,49.44
2023-05-19T15:45:10.625Z,49.67
2023-05-19T15:46:41.535Z,50.02
2023-05-19T15:48:09.081Z,49.68
2023-05-19T15:49:32.289Z,49.82
2023-05-19T15:50:55.025Z,49.66
2023-05-19T15:52:17.473Z,50.05
2023-05-19T15:53:42.913Z,49.89
2023-05-19T15:55:04.427Z,50.05
2023-05-19T15:56:26.832Z,50.13
2023-05-19T15:57:49.039Z,50.26
2023-05-19T15:59:10.179Z,50.39
2023-05-19T16:00:45.549Z,50.48
2023-05-19T16:02:08.288Z,50.50
2023-05-19T16:03:31.928Z,50.63
2023-05-19T16:04:54.169Z,50.61
2023-05-19T16:06:16.523Z,50.59
2023-05-19T16:07:42.325Z,50.78
2023-05-19T16:09:04.457Z,50.79
2023-05-19T16:10:26.522Z,50.75
2023-05-19T16:11:49.806Z,50.57
2023-05-19T16:13:12.045Z,51.00
2023-05-19T16:14:36.644Z,51.27
2023-05-19T16:15:59.089Z,51.58
2023-05-19T16:17:20.084Z,51.75
2023-05-19T16:18:50.216Z,51.92
2023-05-19T16:20:13.016Z,51.87
2023-05-19T16:21:33.939Z,51.93
2023-05-19T16:22:58.579Z,51.98
2023-05-19T16:24:20.766Z,52.31
2023-05-19T16:25:45.607Z,52.42
2023-05-19T16:27:07.288Z,52.52
2023-05-19T16:28:31.360Z,52.60
2023-05-19T16:29:54.876Z,52.40
2023-05-19T16:31:17.172Z,52.46
2023-05-19T16:32:39.716Z,52.70
2023-05-19T16:34:19.940Z,52.50
2023-05-19T16:35:42.056Z,52.83
2023-05-19T16:37:13.840Z,52.69
2023-05-19T16:38:35.960Z,52.95
2023-05-19T16:39:57.296Z,52.91
2023-05-19T16:41:19.430Z,53.02
2023-05-19T16:42:48.693Z,53.08
2023-05-19T16:44:14.761Z,53.10
2023-05-19T16:45:36.150Z,53.37
2023-05-19T16:47:01.331Z,53.48
2023-05-19T16:48:28.026Z,53.48
2023-05-19T16:50:00.472Z,53.97
2023-05-19T16:51:27.754Z,53.77
2023-05-19T16:52:50.052Z,53.98
2023-05-19T16:54:12.430Z,54.16
2023-05-19T16:55:33.953Z,54.24
2023-05-19T16:56:56.128Z,54.65
2023-05-19T16:58:17.472Z,54.68
2023-05-19T16:59:49.865Z,54.71
2023-05-19T17:01:17.494Z,55.09
2023-05-19T17:02:41.215Z,55.10
2023-05-19T17:04:21.659Z,55.22
2023-05-19T17:05:45.113Z,55.55
2023-05-19T17:07:07.225Z,55.51
2023-05-19T17:08:29.558Z,55.77
2023-05-19T17:09:53.937Z,55.68
2023-05-19T17:11:17.414Z,55.79
2023-05-19T17:12:39.779Z,55.84
2023-05-19T17:14:02.148Z,56.02
2023-05-19T17:15:24.249Z,56.11
2023-05-19T17:16:46.805Z,56.36
2023-05-19T17:18:08.953Z,56.39
2023-05-19T17:19:31.647Z,56.44
2023-05-19T17:20:55.609Z,56.91
2023-05-19T17:22:17.005Z,57.15
2023-05-19T17:23:39.405Z,57.08
2023-05-19T17:25:13.894Z,57.21
2023-05-19T17:26:45.333Z,57.47
2023-05-19T17:28:18.384Z,57.51
2023-05-19T17:29:42.665Z,57.53
2023-05-19T17:31:13.093Z,57.70
2023-05-19T17:32:39.533Z,57.82
2023-05-19T17:34:15.470Z,57.70
2023-05-19T17:35:39.092Z,57.72
2023-05-19T17:37:06.232Z,58.02
2023-05-19T17:38:28.742Z,58.06
2023-05-19T17:39:51.149Z,58.19
2023-05-19T17:41:22.053Z,58.27
2023-05-19T17:42:44.538Z,58.44
2023-05-19T17:44:07.585Z,58.43
2023-05-19T17:45:57.262Z,58.54
2023-05-19T17:47:23.803Z,58.83
2023-05-19T17:48:48.837Z,58.86
2023-05-19T17:50:12.245Z,58.84
2023-05-19T17:51:34.796Z,59.04
2023-05-19T17:52:58.964Z,59.12
2023-05-19T17:54:26.335Z,59.36
2023-05-19T17:55:52.668Z,59.54
2023-05-19T17:57:18.655Z,59.67
2023-05-19T17:58:41.592Z,59.53
2023-05-19T18:00:05.008Z,59.85
2023-05-19T18:01:30.980Z,59.84
2023-05-19T18:03:06.213Z,59.80
2023-05-19T18:04:35.424Z,59.99
2023-05-19T18:06:02.197Z,60.16
2023-05-19T18:07:25.473Z,60.35
2023-05-19T18:08:51.633Z,60.18
2023-05-19T18:10:16.944Z,60.24
2023-05-19T18:11:39.008Z,60.37
2023-05-19T18:13:00.507Z,60.36
2023-05-19T18:14:23.003Z,60.63
2023-05-19T18:15:45.335Z,60.79
2023-05-19T18:17:12.218Z,60.91
2023-05-19T18:18:37.410Z,60.92
2023-05-19T18:19:59.468Z,60.90
2023-05-19T18:21:21.630Z,60.88
2023-05-19T18:22:44.118Z,61.16
2023-05-19T18:24:08.471Z,60.92
2023-05-19T18:25:31.516Z,61.33
2023-05-19T18:26:56.305Z,61.18
2023-05-19T18:28:18.705Z,61.26
2023-05-19T18:29:40.855Z,61.02
2023-05-19T18:31:08.719Z,61.27
2023-05-19T18:32:31.096Z,61.08
2023-05-19T18:33:53.319Z,61.34
2023-05-19T18:35:16.064Z,61.28
2023-05-19T18:36:38.132Z,61.38
2023-05-19T18:38:00.194Z,61.35
2023-05-19T18:39:29.263Z,61.46
2023-05-19T18:40:56.823Z,61.53
2023-05-19T18:42:19.451Z,61.70
2023-05-19T18:43:41.551Z,61.63
2023-05-19T18:45:03.849Z,61.57
2023-05-19T18:46:26.566Z,61.60
2023-05-19T18:47:49.036Z,61.77
2023-05-19T18:49:13.771Z,62.02
2023-05-19T18:50:41.350Z,62.18
2023-05-19T18:52:04.979Z,62.05
2023-05-19T18:53:27.249Z,61.87
2023-05-19T18:54:51.011Z,62.00
2023-05-19T18:56:15.372Z,62.02
2023-05-19T18:57:38.042Z,62.04
2023-05-19T18:59:00.103Z,61.95
2023-05-19T19:00:22.503Z,62.09
2023-05-19T19:01:46.953Z,62.20
2023-05-19T19:03:10.464Z,62.21
2023-05-19T19:04:35.461Z,62.37
2023-05-19T19:05:58.830Z,62.18
2023-05-19T19:07:21.225Z,62.48
2023-05-19T19:08:43.704Z,62.37
2023-05-19T19:10:18.853Z,62.18
2023-05-19T19:11:41.889Z,62.32
2023-05-19T19:13:02.874Z,62.61
2023-05-19T19:14:25.190Z,62.49
2023-05-19T19:15:46.994Z,62.58
2023-05-19T19:17:09.762Z,62.76
2023-05-19T19:18:34.786Z,62.64
2023-05-19T19:19:57.397Z,62.63
2023-05-19T19:21:23.057Z,62.82
2023-05-19T19:22:47.255Z,62.76
2023-05-19T19:24:09.779Z,62.92
2023-05-19T19:25:37.711Z,62.99
2023-05-19T19:26:59.070Z,62.88
2023-05-19T19:28:22.277Z,62.87
2023-05-19T19:29:47.476Z,62.91
2023-05-19T19:31:15.545Z,62.99
2023-05-19T19:32:38.016Z,62.81
2023-05-19T19:34:25.642Z,62.95
2023-05-19T19:35:54.384Z,63.18
2023-05-19T19:37:22.632Z,63.37
2023-05-19T19:38:45.062Z,63.35
2023-05-19T19:40:08.700Z,63.19
2023-05-19T19:41:33.560Z,63.29
2023-05-19T19:43:07.130Z,63.24
2023-05-19T19:44:29.659Z,63.37
2023-05-19T19:46:00.771Z,63.46
2023-05-19T19:47:23.465Z,63.37
2023-05-19T19:48:48.417Z,63.37
2023-05-19T19:50:18.370Z,63.48
2023-05-19T19:51:40.624Z,63.52
2023-05-19T19:53:03.105Z,63.54
2023-05-19T19:54:25.531Z,63.49
2023-05-19T19:55:47.192Z,63.61
2023-05-19T19:57:11.632Z,63.83
2023-05-19T19:58:33.996Z,63.90
2023-05-19T20:00:04.964Z,63.74
2023-05-19T20:01:28.051Z,64.00
2023-05-19T20:03:02.683Z,63.82
2023-05-19T20:04:28.462Z,63.94
2023-05-19T20:05:51.535Z,64.06
2023-05-19T20:07:14.357Z,64.08
2023-05-19T20:08:37.658Z,64.10
2023-05-19T20:10:00.274Z,64.22
2023-05-19T20:11:24.988Z,64.28
2023-05-19T20:12:54.510Z,64.17
2023-05-19T20:14:26.699Z,64.24
2023-05-19T20:15:50.160Z,64.24
2023-05-19T20:17:12.582Z,64.26
2023-05-19T20:18:34.992Z,64.35